Flight Track Log - Related Links

Times and Time Zones

All times are in EDT time to prevent confusion due to time zone crossing. See the TMC875 flight status page for this flight to view local times or setup timezone preferences in your user account.

Time Position Orientation Groundspeed Altitude Reporting Facility
EDT Latitude Longitude Course Direction KTS MPH feet Rate Location/Type
Tue 02:06:41 PM 37.7333 -122.2667 345° North 207 238 2,300  Level Northern Cal TRACON
Tue 02:07:41 PM 37.7833 -122.2833 345° North 231 266 7,300 4,636 Climbing Northern Cal TRACON
Tue 02:08:09 PM 37.8006 -122.2622 44° Northeast 222 255 9,100 3,978 Climbing Oakland Center
Tue 02:09:10 PM 37.8519 -122.2050 41° Northeast 242 278 13,200 4,000 Climbing Oakland Center
Tue 02:10:12 PM 37.9094 -122.1433 40° Northeast 268 308 17,300 3,415 Climbing Oakland Center
Tue 02:11:13 PM 37.9675 -122.0783 41° Northeast 279 321 20,200 3,148 Climbing Oakland Center
Tue 02:12:14 PM 38.0428 -121.9964 41° Northeast 297 342 23,700 3,171 Climbing Oakland Center
Tue 02:13:16 PM 38.1106 -121.9431 32° Northeast 290 334 26,700 2,488 Climbing Oakland Center
Tue 02:14:17 PM 38.1769 -121.8908 32° Northeast 283 326 28,800 1,512 Climbing Oakland Center
Tue 02:15:19 PM 38.2511 -121.8275 34° Northeast 316 364 29,800 1,171 Climbing Oakland Center
Tue 02:16:20 PM 38.3333 -121.7594 33° Northeast 349 402 31,200 1,268 Climbing Oakland Center
Tue 02:17:22 PM 38.4281 -121.6786 34° Northeast 368 423 32,400 1,024 Climbing Oakland Center
Tue 02:18:23 PM 38.5203 -121.6000 34° Northeast 392 451 33,300 878 Climbing Oakland Center
Tue 02:19:25 PM 38.6153 -121.5208 33° Northeast 402 463 34,200 927 Climbing Oakland Center
Tue 02:20:26 PM 38.7128 -121.4375 34° Northeast 412 474 35,200 1,024 Climbing Oakland Center
Tue 02:21:28 PM 38.8094 -121.3550 34° Northeast 411 473 36,300 1,073 Climbing Oakland Center
Tue 02:22:29 PM 38.9031 -121.2744 34° Northeast 403 464 37,400 976 Climbing Oakland Center
Tue 02:23:31 PM 38.9947 -121.1975 33° Northeast 394 453 38,300 683 Climbing Oakland Center
Tue 02:24:32 PM 39.0864 -121.1142 35° Northeast 398 458 38,800 488 Climbing Oakland Center
Tue 02:25:34 PM 39.1803 -121.0328 34° Northeast 403 464 39,300 488 Climbing Oakland Center
Tue 02:26:35 PM 39.2747 -120.9519 34° Northeast 407 468 39,800 492 Climbing Oakland Center
Tue 02:27:36 PM 39.3683 -120.8681 35° Northeast 408 470 40,300 488 Climbing Oakland Center
Tue 02:28:38 PM 39.4608 -120.7861 34° Northeast 406 467 40,800 341 Climbing Oakland Center
Tue 02:29:39 PM 39.5719 -120.6878 34° Northeast 403 464 41,000 98 Climbing Oakland Center
Tue 02:30:41 PM 39.6683 -120.6067 33° Northeast 409 471 41,000  Level Oakland Center
Tue 02:31:42 PM 39.7639 -120.5183 35° Northeast 420 483 41,000  Level Oakland Center
Tue 02:32:44 PM 39.8619 -120.4317 34° Northeast 430 495 41,000  Level Oakland Center
Tue 02:33:45 PM 39.9611 -120.3439 34° Northeast 432 497 41,000  Level Oakland Center
Tue 02:34:46 PM 40.0589 -120.2553 35° Northeast 432 497 41,000  Level Oakland Center
Tue 02:35:48 PM 40.1597 -120.1636 35° Northeast 438 504 41,000  Level Oakland Center
Tue 02:36:49 PM 40.2600 -120.0733 34° Northeast 438 504 41,000  Level Oakland Center
Tue 02:37:50 PM 40.3625 -119.9822 34° Northeast 443 510 41,000  Level Oakland Center
Tue 02:38:52 PM 40.4814 -119.8744 35° Northeast 434 499 41,000  Level Oakland Center
Tue 02:39:53 PM 40.5633 -119.7986 35° Northeast 434 499 41,000  Level Oakland Center
Tue 02:40:54 PM 40.6639 -119.7069 35° Northeast 436 502 41,000  Level Oakland Center
Tue 02:41:56 PM 40.7836 -119.5972 35° Northeast 437 503 41,000  Level Oakland Center
Tue 02:42:57 PM 40.8758 -119.5111 35° Northeast 436 502 41,000  Level Oakland Center
Tue 02:43:58 PM 40.9883 -119.4061 35° Northeast 439 505 41,000  Level Oakland Center
Tue 02:44:57 PM 41.0856 -119.3158 35° Northeast 442 509 41,000  Level Salt Lake Center
Tue 02:45:58 PM 41.1831 -119.2244 35° Northeast 444 511 41,000  Level Salt Lake Center
Tue 02:47:00 PM 41.2794 -119.1333 35° Northeast 445 512 41,000  Level Salt Lake Center
Tue 02:48:02 PM 41.3925 -119.0272 35° Northeast 444 511 41,000  Level Salt Lake Center
Tue 02:49:03 PM 41.4883 -118.9369 35° Northeast 442 509 41,000  Level Salt Lake Center
Tue 02:50:05 PM 41.6000 -118.8314 35° Northeast 441 507 41,000  Level Salt Lake Center
Tue 02:51:06 PM 41.6964 -118.7383 36° Northeast 443 510 41,000  Level Salt Lake Center
Tue 02:52:08 PM 41.7922 -118.6469 35° Northeast 441 507 41,000  Level Salt Lake Center
Tue 02:53:09 PM 41.9039 -118.5392 36° Northeast 440 506 41,000  Level Salt Lake Center
Tue 02:54:11 PM 42.0011 -118.4461 35° Northeast 444 511 41,000  Level Salt Lake Center
Tue 02:55:12 PM 42.1133 -118.3364 36° Northeast 445 512 41,000  Level Salt Lake Center
Tue 02:56:14 PM 42.2100 -118.2425 36° Northeast 446 513 41,000  Level Salt Lake Center
Tue 02:57:15 PM 42.3081 -118.1481 35° Northeast 450 518 41,000  Level Salt Lake Center
Tue 02:58:17 PM 42.4214 -118.0319 37° Northeast 451 519 41,000  Level Salt Lake Center
Tue 02:59:19 PM 42.5161 -117.9344 37° Northeast 448 516 41,000  Level Salt Lake Center
Tue 03:00:20 PM 42.6194 -117.8056 43° Northeast 457 526 41,000  Level Salt Lake Center
Tue 03:01:22 PM 42.6911 -117.6722 54° Northeast 458 527 41,000  Level Salt Lake Center
Tue 03:02:23 PM 42.7625 -117.5389 54° Northeast 456 525 41,000  Level Salt Lake Center
Tue 03:03:25 PM 42.8450 -117.3814 54° Northeast 456 525 41,000  Level Salt Lake Center
Tue 03:04:26 PM 42.9156 -117.2464 54° Northeast 457 526 41,000  Level Salt Lake Center
Tue 03:05:28 PM 42.9978 -117.0889 54° Northeast 456 525 41,000  Level Salt Lake Center
Tue 03:06:29 PM 43.0681 -116.9508 55° Northeast 462 532 41,000  Level Salt Lake Center
Tue 03:07:31 PM 43.1508 -116.7925 54° Northeast 459 528 41,000  Level Salt Lake Center
Tue 03:08:33 PM 43.2217 -116.6544 55° Northeast 462 532 41,000  Level Salt Lake Center
Tue 03:09:34 PM 43.2922 -116.5175 55° Northeast 461 531 41,000  Level Salt Lake Center
Tue 03:10:36 PM 43.3736 -116.3561 55° Northeast 460 529 41,000  Level Salt Lake Center
Tue 03:11:37 PM 43.4436 -116.2178 55° Northeast 460 529 41,000  Level Salt Lake Center
Tue 03:12:39 PM 43.5247 -116.0581 55° Northeast 457 526 41,000  Level Salt Lake Center
Tue 03:13:40 PM 43.5947 -115.9194 55° Northeast 462 532 41,000  Level Salt Lake Center
Tue 03:14:42 PM 43.6750 -115.7583 55° Northeast 459 528 41,000  Level Salt Lake Center
Tue 03:15:43 PM 43.7439 -115.6192 56° Northeast 461 531 41,000  Level Salt Lake Center
Tue 03:16:45 PM 43.8114 -115.4814 56° Northeast 455 524 41,000  Level Salt Lake Center
Tue 03:17:46 PM 43.8911 -115.3192 56° Northeast 457 526 41,000  Level Salt Lake Center
Tue 03:19:00 PM 43.9665 -115.1593 57° Northeast  Level FlightAware Approximate
Tue 03:19:50 PM 44.0386 -115.0150 57° Northeast 458 527 41,000  Level Salt Lake Center
Tue 03:20:51 PM 44.1078 -114.8744 56° Northeast 459 528 41,000  Level Salt Lake Center
Tue 03:21:53 PM 44.1864 -114.7089 56° Northeast 461 531 41,000  Level Salt Lake Center
Tue 03:22:55 PM 44.2544 -114.5653 56° Northeast 462 532 41,000  Level Salt Lake Center
Tue 03:23:56 PM 44.3347 -114.3986 56° Northeast 464 534 41,000  Level Salt Lake Center
Tue 03:24:58 PM 44.3992 -114.2553 58° Northeast 460 529 41,000  Level Salt Lake Center
Tue 03:26:00 PM 44.4689 -114.1106 56° Northeast 466 536 41,000  Level Salt Lake Center
Tue 03:27:01 PM 44.5492 -113.9414 56° Northeast 468 539 41,000 -98 Level Salt Lake Center
Tue 03:28:03 PM 44.6153 -113.7925 58° Northeast 465 535 40,800 -581 Descending Salt Lake Center
Tue 03:29:05 PM 44.6969 -113.6200 56° Northeast 472 543 39,800 -1,171 Descending Salt Lake Center
Tue 03:30:06 PM 44.7653 -113.4703 57° Northeast 474 545 38,400 -1,366 Descending Salt Lake Center
Tue 03:31:08 PM 44.8317 -113.3247 57° Northeast 464 534 37,000 -1,452 Descending Salt Lake Center
Tue 03:32:10 PM 44.9083 -113.1550 57° Northeast 460 529 35,400 -1,415 Descending Salt Lake Center
Tue 03:33:11 PM 44.9725 -113.0114 58° Northeast 453 521 34,100 -1,415 Descending Salt Lake Center
Tue 03:34:13 PM 45.0464 -112.8481 57° Northeast 443 510 32,500 -1,463 Descending Salt Lake Center
Tue 03:35:14 PM 45.1092 -112.7069 58° Northeast 442 509 31,100 -1,756 Descending Salt Lake Center
Tue 03:36:16 PM 45.1722 -112.5672 57° Northeast 440 506 28,900 -2,371 Descending Salt Lake Center
Tue 03:37:18 PM 45.2422 -112.4078 58° Northeast 429 494 26,200 -2,488 Descending Salt Lake Center
Tue 03:38:19 PM 45.3008 -112.2772 57° Northeast 418 481 23,800 -2,537 Descending Salt Lake Center
Tue 03:39:21 PM 45.3669 -112.1425 55° Northeast 373 429 21,000 -2,537 Descending Salt Lake Center
Tue 03:40:22 PM 45.4169 -112.0333 57° Northeast 351 404 18,600 -2,293 Descending Salt Lake Center
Tue 03:41:24 PM 45.4647 -111.9228 58° Northeast 334 384 16,300 -2,341 Descending Salt Lake Center
Tue 03:42:25 PM 45.5097 -111.8200 58° Northeast 315 362 13,800 -1,610 Descending Salt Lake Center
Tue 03:43:27 PM 45.5506 -111.7297 57° Northeast 284 327 13,000 -976 Descending Salt Lake Center
Tue 03:44:28 PM 45.5858 -111.6444 59° Northeast 257 296 11,800 -976 Descending Salt Lake Center
Tue 03:45:30 PM 45.6222 -111.5594 59° Northeast 254 292 11,000 -390 Descending Salt Lake Center
Tue 03:46:31 PM 45.6686 -111.4850 48° Northeast 229 264 11,000 -197 Level Salt Lake Center
Tue 03:47:32 PM 45.7269 -111.5058 346° North 223 257 10,600 -1,024 Descending Salt Lake Center
Tue 03:48:34 PM 45.7900 -111.5136 355° North 224 258 8,900 -1,317 Descending Salt Lake Center
Tue 03:49:35 PM 45.8508 -111.5033 North 222 255 7,900 -439 Descending Salt Lake Center
Tue 03:50:37 PM 45.8972 -111.4767 22° Northeast 194 223 8,000  Climbing Salt Lake Center
Tue 03:51:38 PM 45.9403 -111.4361 33° Northeast 185 213 7,900  Descending Salt Lake Center
Tue 03:52:39 PM 45.9328 -111.3694 99° East 193 222 8,000 -195 Climbing Salt Lake Center
Tue 03:53:41 PM 45.8978 -111.3208 136° Southeast 183 211 7,500 -683 Descending Salt Lake Center
Tue 03:54:42 PM 45.8647 -111.2744 136° Southeast 175 201 6,600 -878 Descending Salt Lake Center
Tue 03:55:44 PM 45.8347 -111.2328 136° Southeast 163 188 5,700 -732 Descending Salt Lake Center
Tue 03:56:45 PM 45.8086 -111.1958 135° Southeast 147 169 5,100 -639 Descending Salt Lake Center
Tue 03:57:46 PM 45.7789 -111.1542 136° Southeast 143 165 4,400 -689 Descending Salt Lake Center

Login

Don't have an account? Register now (free) for customized features, flight alerts, and more!